sensor_id;sensor_type;location;lat;lon;timestamp;pressure;altitude;pressure_sealevel;temperature;humidity
11682;BME280;5897;42.640;23.310;2023-06-04T00:01:59;94074.84;;;16.81;100.00
11682;BME280;5897;42.640;23.310;2023-06-04T00:04:26;94072.88;;;16.81;100.00
11682;BME280;5897;42.640;23.310;2023-06-04T00:06:55;94071.97;;;16.84;100.00
11682;BME280;5897;42.640;23.310;2023-06-04T00:09:21;94077.25;;;16.88;100.00
11682;BME280;5897;42.640;23.310;2023-06-04T00:11:48;94071.97;;;16.84;100.00
11682;BME280;5897;42.640;23.310;2023-06-04T00:14:15;94070.38;;;16.92;100.00
11682;BME280;5897;42.640;23.310;2023-06-04T00:16:42;94068.63;;;16.80;100.00
11682;BME280;5897;42.640;23.310;2023-06-04T00:19:08;94069.53;;;16.77;100.00
11682;BME280;5897;42.640;23.310;2023-06-04T00:21:35;94067.88;;;16.80;100.00
11682;BME280;5897;42.640;23.310;2023-06-04T00:24:03;94067.41;;;16.81;100.00
11682;BME280;5897;42.640;23.310;2023-06-04T00:26:30;94068.00;;;16.85;100.00
11682;BME280;5897;42.640;23.310;2023-06-04T00:28:57;94066.00;;;16.86;100.00
11682;BME280;5897;42.640;23.310;2023-06-04T00:31:24;94061.31;;;16.86;100.00
11682;BME280;5897;42.640;23.310;2023-06-04T00:33:51;94059.38;;;16.87;100.00
11682;BME280;5897;42.640;23.310;2023-06-04T00:36:18;94060.88;;;16.88;100.00
11682;BME280;5897;42.640;23.310;2023-06-04T00:38:45;94064.94;;;16.92;100.00
11682;BME280;5897;42.640;23.310;2023-06-04T00:41:14;94060.53;;;16.95;100.00
11682;BME280;5897;42.640;23.310;2023-06-04T00:43:40;94068.72;;;16.95;100.00
11682;BME280;5897;42.640;23.310;2023-06-04T00:46:11;94065.69;;;16.93;100.00
11682;BME280;5897;42.640;23.310;2023-06-04T00:48:43;94056.75;;;16.92;100.00
11682;BME280;5897;42.640;23.310;2023-06-04T00:51:10;94055.34;;;16.97;100.00
11682;BME280;5897;42.640;23.310;2023-06-04T00:53:37;94051.44;;;16.98;100.00
11682;BME280;5897;42.640;23.310;2023-06-04T00:56:05;94057.63;;;16.98;100.00
11682;BME280;5897;42.640;23.310;2023-06-04T00:58:33;94053.84;;;16.96;100.00
11682;BME280;5897;42.640;23.310;2023-06-04T01:01:04;94053.22;;;17.01;100.00
11682;BME280;5897;42.640;23.310;2023-06-04T01:03:35;94056.72;;;17.01;100.00
11682;BME280;5897;42.640;23.310;2023-06-04T01:06:13;94055.03;;;17.04;100.00
11682;BME280;5897;42.640;23.310;2023-06-04T01:08:47;94060.47;;;17.04;100.00
11682;BME280;5897;42.640;23.310;2023-06-04T01:11:14;94057.09;;;17.09;100.00
11682;BME280;5897;42.640;23.310;2023-06-04T01:13:43;94054.84;;;17.07;100.00
11682;BME280;5897;42.640;23.310;2023-06-04T01:16:10;94053.34;;;17.06;100.00
11682;BME280;5897;42.640;23.310;2023-06-04T01:18:39;94064.38;;;17.12;100.00
11682;BME280;5897;42.640;23.310;2023-06-04T01:21:09;94054.69;;;17.11;100.00
11682;BME280;5897;42.640;23.310;2023-06-04T01:23:45;94056.19;;;17.12;100.00
11682;BME280;5897;42.640;23.310;2023-06-04T01:26:13;94054.50;;;17.14;100.00
11682;BME280;5897;42.640;23.310;2023-06-04T01:28:40;94059.19;;;17.14;100.00
11682;BME280;5897;42.640;23.310;2023-06-04T01:31:10;94056.59;;;17.19;100.00
11682;BME280;5897;42.640;23.310;2023-06-04T01:33:37;94061.28;;;17.19;100.00
11682;BME280;5897;42.640;23.310;2023-06-04T01:36:05;94070.88;;;17.14;100.00
11682;BME280;5897;42.640;23.310;2023-06-04T01:38:35;94067.38;;;17.14;100.00
11682;BME280;5897;42.640;23.310;2023-06-04T01:41:02;94068.00;;;17.09;100.00
11682;BME280;5897;42.640;23.310;2023-06-04T01:43:29;94080.66;;;17.06;100.00
11682;BME280;5897;42.640;23.310;2023-06-04T01:46:00;94070.63;;;17.03;100.00
11682;BME280;5897;42.640;23.310;2023-06-04T01:48:28;94067.81;;;16.98;100.00
11682;BME280;5897;42.640;23.310;2023-06-04T01:50:55;94065.53;;;16.96;100.00
11682;BME280;5897;42.640;23.310;2023-06-04T01:53:22;94081.13;;;16.96;100.00
11682;BME280;5897;42.640;23.310;2023-06-04T01:55:49;94074.94;;;16.95;100.00
11682;BME280;5897;42.640;23.310;2023-06-04T01:58:16;94078.13;;;16.94;100.00
11682;BME280;5897;42.640;23.310;2023-06-04T02:00:48;94084.75;;;17.02;100.00
11682;BME280;5897;42.640;23.310;2023-06-04T02:03:15;94081.13;;;16.96;100.00
11682;BME280;5897;42.640;23.310;2023-06-04T02:05:43;94083.81;;;17.05;100.00
11682;BME280;5897;42.640;23.310;2023-06-04T02:08:12;94086.91;;;16.98;100.00
11682;BME280;5897;42.640;23.310;2023-06-04T02:10:45;94090.25;;;16.93;100.00
11682;BME280;5897;42.640;23.310;2023-06-04T02:13:13;94092.81;;;16.96;100.00
11682;BME280;5897;42.640;23.310;2023-06-04T02:15:40;94093.56;;;16.97;100.00
11682;BME280;5897;42.640;23.310;2023-06-04T02:18:15;94095.09;;;16.98;100.00
11682;BME280;5897;42.640;23.310;2023-06-04T02:20:44;94060.72;;;16.82;100.00
11682;BME280;5897;42.640;23.310;2023-06-04T02:23:11;94098.97;;;17.06;100.00
11682;BME280;5897;42.640;23.310;2023-06-04T02:25:38;94099.25;;;17.08;100.00
11682;BME280;5897;42.640;23.310;2023-06-04T02:28:06;94103.38;;;17.03;100.00
11682;BME280;5897;42.640;23.310;2023-06-04T02:30:33;94111.31;;;16.92;100.00
11682;BME280;5897;42.640;23.310;2023-06-04T02:32:59;94104.09;;;16.89;100.00
11682;BME280;5897;42.640;23.310;2023-06-04T02:35:27;94115.72;;;16.90;100.00
11682;BME280;5897;42.640;23.310;2023-06-04T02:37:55;94113.06;;;16.81;100.00
11682;BME280;5897;42.640;23.310;2023-06-04T02:40:23;94125.16;;;16.80;100.00
11682;BME280;5897;42.640;23.310;2023-06-04T02:42:51;94118.03;;;16.82;100.00
11682;BME280;5897;42.640;23.310;2023-06-04T02:45:18;94119.44;;;16.78;100.00
11682;BME280;5897;42.640;23.310;2023-06-04T02:47:45;94127.16;;;16.79;100.00
11682;BME280;5897;42.640;23.310;2023-06-04T02:50:13;94120.19;;;16.78;100.00
11682;BME280;5897;42.640;23.310;2023-06-04T02:52:40;94120.34;;;16.75;100.00
11682;BME280;5897;42.640;23.310;2023-06-04T02:55:09;94126.56;;;16.75;100.00
11682;BME280;5897;42.640;23.310;2023-06-04T02:57:38;94125.47;;;16.82;100.00
11682;BME280;5897;42.640;23.310;2023-06-04T03:00:07;94127.91;;;16.80;100.00
11682;BME280;5897;42.640;23.310;2023-06-04T03:02:38;94129.75;;;16.74;100.00
11682;BME280;5897;42.640;23.310;2023-06-04T03:05:05;94129.56;;;16.77;100.00
11682;BME280;5897;42.640;23.310;2023-06-04T03:07:32;94130.63;;;16.80;100.00
11682;BME280;5897;42.640;23.310;2023-06-04T03:09:59;94124.00;;;16.63;100.00
11682;BME280;5897;42.640;23.310;2023-06-04T03:12:27;94123.72;;;16.70;100.00
11682;BME280;5897;42.640;23.310;2023-06-04T03:14:53;94128.84;;;16.77;100.00
11682;BME280;5897;42.640;23.310;2023-06-04T03:17:20;94133.25;;;16.65;100.00
11682;BME280;5897;42.640;23.310;2023-06-04T03:19:47;94131.91;;;16.70;100.00
11682;BME280;5897;42.640;23.310;2023-06-04T03:22:14;94132.63;;;16.79;100.00
11682;BME280;5897;42.640;23.310;2023-06-04T03:24:41;94132.19;;;16.72;100.00
11682;BME280;5897;42.640;23.310;2023-06-04T03:27:09;94130.69;;;16.62;100.00
11682;BME280;5897;42.640;23.310;2023-06-04T03:29:38;94133.25;;;16.65;100.00
11682;BME280;5897;42.640;23.310;2023-06-04T03:32:06;94131.41;;;16.71;100.00
11682;BME280;5897;42.640;23.310;2023-06-04T03:34:33;94134.44;;;16.73;100.00
11682;BME280;5897;42.640;23.310;2023-06-04T03:37:00;94144.44;;;16.76;100.00
11682;BME280;5897;42.640;23.310;2023-06-04T03:39:27;94152.34;;;16.74;100.00
11682;BME280;5897;42.640;23.310;2023-06-04T03:41:54;94153.09;;;16.75;100.00
11682;BME280;5897;42.640;23.310;2023-06-04T03:44:21;94147.38;;;16.64;100.00
11682;BME280;5897;42.640;23.310;2023-06-04T03:46:49;94149.63;;;16.65;100.00
11682;BME280;5897;42.640;23.310;2023-06-04T03:49:16;94155.25;;;16.62;100.00
11682;BME280;5897;42.640;23.310;2023-06-04T03:51:44;94161.16;;;16.60;100.00
11682;BME280;5897;42.640;23.310;2023-06-04T03:54:11;94153.75;;;16.52;100.00
11682;BME280;5897;42.640;23.310;2023-06-04T03:56:43;94155.56;;;16.55;100.00
11682;BME280;5897;42.640;23.310;2023-06-04T03:59:09;94158.56;;;16.66;100.00
11682;BME280;5897;42.640;23.310;2023-06-04T04:01:36;94164.94;;;16.63;100.00
11682;BME280;5897;42.640;23.310;2023-06-04T04:04:05;94157.69;;;16.60;100.00
11682;BME280;5897;42.640;23.310;2023-06-04T04:06:32;94164.53;;;16.55;100.00
11682;BME280;5897;42.640;23.310;2023-06-04T04:08:59;94163.75;;;16.55;100.00
11682;BME280;5897;42.640;23.310;2023-06-04T04:11:25;94168.03;;;16.47;100.00
11682;BME280;5897;42.640;23.310;2023-06-04T04:13:52;94180.25;;;16.60;100.00
11682;BME280;5897;42.640;23.310;2023-06-04T04:16:19;94171.16;;;16.54;100.00
11682;BME280;5897;42.640;23.310;2023-06-04T04:18:46;94174.34;;;16.62;100.00
11682;BME280;5897;42.640;23.310;2023-06-04T04:21:14;94177.94;;;16.68;100.00
11682;BME280;5897;42.640;23.310;2023-06-04T04:23:41;94172.47;;;16.77;100.00
11682;BME280;5897;42.640;23.310;2023-06-04T04:26:08;94176.44;;;16.76;100.00
11682;BME280;5897;42.640;23.310;2023-06-04T04:28:35;94174.00;;;16.69;100.00
11682;BME280;5897;42.640;23.310;2023-06-04T04:31:02;94177.94;;;16.68;100.00
11682;BME280;5897;42.640;23.310;2023-06-04T04:33:29;94174.47;;;16.67;100.00
11682;BME280;5897;42.640;23.310;2023-06-04T04:35:58;94167.75;;;16.86;100.00
11682;BME280;5897;42.640;23.310;2023-06-04T04:38:26;94176.53;;;16.90;100.00
11682;BME280;5897;42.640;23.310;2023-06-04T04:40:54;94177.84;;;17.04;100.00
11682;BME280;5897;42.640;23.310;2023-06-04T04:43:29;94170.94;;;16.85;100.00
11682;BME280;5897;42.640;23.310;2023-06-04T04:45:56;94178.38;;;16.84;100.00
11682;BME280;5897;42.640;23.310;2023-06-04T04:48:24;94178.03;;;16.91;100.00
11682;BME280;5897;42.640;23.310;2023-06-04T04:50:51;94172.41;;;16.95;100.00
11682;BME280;5897;42.640;23.310;2023-06-04T04:53:17;94176.19;;;16.97;100.00
11682;BME280;5897;42.640;23.310;2023-06-04T04:55:45;94175.69;;;17.08;100.00
11682;BME280;5897;42.640;23.310;2023-06-04T04:58:13;94181.63;;;17.06;100.00
11682;BME280;5897;42.640;23.310;2023-06-04T05:00:40;94179.94;;;17.09;100.00
11682;BME280;5897;42.640;23.310;2023-06-04T05:03:09;94161.34;;;16.98;100.00
11682;BME280;5897;42.640;23.310;2023-06-04T05:05:36;94184.78;;;17.14;100.00
11682;BME280;5897;42.640;23.310;2023-06-04T05:08:03;94181.06;;;17.26;100.00
11682;BME280;5897;42.640;23.310;2023-06-04T05:10:30;94178.81;;;17.24;100.00
11682;BME280;5897;42.640;23.310;2023-06-04T05:12:59;94183.19;;;17.31;100.00
11682;BME280;5897;42.640;23.310;2023-06-04T05:15:26;94180.09;;;17.47;100.00
11682;BME280;5897;42.640;23.310;2023-06-04T05:17:53;94175.81;;;17.55;100.00
11682;BME280;5897;42.640;23.310;2023-06-04T05:20:21;94195.00;;;17.69;100.00
11682;BME280;5897;42.640;23.310;2023-06-04T05:22:48;94187.44;;;17.64;100.00
11682;BME280;5897;42.640;23.310;2023-06-04T05:25:16;94189.72;;;17.66;100.00
11682;BME280;5897;42.640;23.310;2023-06-04T05:27:43;94188.66;;;17.63;100.00
11682;BME280;5897;42.640;23.310;2023-06-04T05:30:12;94195.22;;;17.57;100.00
11682;BME280;5897;42.640;23.310;2023-06-04T05:32:39;94188.81;;;17.60;100.00
11682;BME280;5897;42.640;23.310;2023-06-04T05:35:07;94192.91;;;17.64;100.00
11682;BME280;5897;42.640;23.310;2023-06-04T05:37:35;94197.19;;;17.80;100.00
11682;BME280;5897;42.640;23.310;2023-06-04T05:40:04;94191.03;;;17.70;100.00
11682;BME280;5897;42.640;23.310;2023-06-04T05:42:32;94204.41;;;17.92;100.00
11682;BME280;5897;42.640;23.310;2023-06-04T05:44:59;94185.22;;;17.77;100.00
11682;BME280;5897;42.640;23.310;2023-06-04T05:47:27;94207.59;;;17.90;100.00
11682;BME280;5897;42.640;23.310;2023-06-04T05:49:55;94204.00;;;17.84;100.00
11682;BME280;5897;42.640;23.310;2023-06-04T05:52:22;94218.06;;;17.92;100.00
11682;BME280;5897;42.640;23.310;2023-06-04T05:54:49;94218.94;;;17.98;100.00
11682;BME280;5897;42.640;23.310;2023-06-04T05:57:16;94214.53;;;18.00;100.00
11682;BME280;5897;42.640;23.310;2023-06-04T05:59:42;94222.81;;;17.91;100.00
11682;BME280;5897;42.640;23.310;2023-06-04T06:02:09;94229.88;;;17.98;100.00
11682;BME280;5897;42.640;23.310;2023-06-04T06:04:37;94223.31;;;18.04;100.00
11682;BME280;5897;42.640;23.310;2023-06-04T06:07:04;94235.56;;;18.09;100.00
11682;BME280;5897;42.640;23.310;2023-06-04T06:09:31;94235.94;;;18.02;100.00
11682;BME280;5897;42.640;23.310;2023-06-04T06:11:58;94240.22;;;17.94;100.00
11682;BME280;5897;42.640;23.310;2023-06-04T06:14:25;94237.09;;;17.86;100.00
11682;BME280;5897;42.640;23.310;2023-06-04T06:16:51;94242.50;;;17.95;100.00
11682;BME280;5897;42.640;23.310;2023-06-04T06:19:18;94223.31;;;18.04;100.00
11682;BME280;5897;42.640;23.310;2023-06-04T06:21:46;94239.81;;;18.10;100.00
11682;BME280;5897;42.640;23.310;2023-06-04T06:24:13;94241.16;;;18.14;100.00
11682;BME280;5897;42.640;23.310;2023-06-04T06:26:40;94238.94;;;18.27;100.00
11682;BME280;5897;42.640;23.310;2023-06-04T06:29:08;94238.81;;;18.22;100.00
11682;BME280;5897;42.640;23.310;2023-06-04T06:31:34;94239.47;;;18.40;100.00
11682;BME280;5897;42.640;23.310;2023-06-04T06:34:01;94236.84;;;18.46;100.00
11682;BME280;5897;42.640;23.310;2023-06-04T06:36:28;94242.09;;;18.35;100.00
11682;BME280;5897;42.640;23.310;2023-06-04T06:38:56;94238.63;;;18.25;100.00
11682;BME280;5897;42.640;23.310;2023-06-04T06:41:23;94240.88;;;18.36;100.00
11682;BME280;5897;42.640;23.310;2023-06-04T06:43:51;94243.06;;;18.46;100.00
11682;BME280;5897;42.640;23.310;2023-06-04T06:46:18;94218.34;;;18.41;100.00
11682;BME280;5897;42.640;23.310;2023-06-04T06:48:44;94235.25;;;18.54;100.00
11682;BME280;5897;42.640;23.310;2023-06-04T06:51:12;94239.09;;;18.47;100.00
11682;BME280;5897;42.640;23.310;2023-06-04T06:53:39;94243.19;;;18.52;100.00
11682;BME280;5897;42.640;23.310;2023-06-04T06:56:07;94240.44;;;18.52;100.00
11682;BME280;5897;42.640;23.310;2023-06-04T06:58:34;94245.34;;;18.48;100.00
11682;BME280;5897;42.640;23.310;2023-06-04T07:01:01;94244.00;;;18.43;100.00
11682;BME280;5897;42.640;23.310;2023-06-04T07:03:28;94246.13;;;18.63;100.00
11682;BME280;5897;42.640;23.310;2023-06-04T07:05:55;94245.28;;;18.71;100.00
11682;BME280;5897;42.640;23.310;2023-06-04T07:08:22;94246.41;;;18.79;100.00
11682;BME280;5897;42.640;23.310;2023-06-04T07:10:48;94250.47;;;18.84;100.00
11682;BME280;5897;42.640;23.310;2023-06-04T07:13:17;94252.66;;;18.80;100.00
11682;BME280;5897;42.640;23.310;2023-06-04T07:15:43;94252.34;;;18.78;100.00
11682;BME280;5897;42.640;23.310;2023-06-04T07:18:10;94263.13;;;18.81;100.00
11682;BME280;5897;42.640;23.310;2023-06-04T07:20:37;94267.69;;;18.99;100.00
11682;BME280;5897;42.640;23.310;2023-06-04T07:23:04;94263.91;;;19.11;100.00
11682;BME280;5897;42.640;23.310;2023-06-04T07:25:32;94266.16;;;18.98;100.00
11682;BME280;5897;42.640;23.310;2023-06-04T07:27:59;94273.25;;;19.19;100.00
11682;BME280;5897;42.640;23.310;2023-06-04T07:30:30;94245.84;;;19.04;99.81
11682;BME280;5897;42.640;23.310;2023-06-04T07:32:57;94261.81;;;19.20;100.00
11682;BME280;5897;42.640;23.310;2023-06-04T07:35:24;94267.31;;;19.35;100.00
11682;BME280;5897;42.640;23.310;2023-06-04T07:37:51;94266.78;;;19.31;100.00
11682;BME280;5897;42.640;23.310;2023-06-04T07:40:18;94273.94;;;19.43;100.00
11682;BME280;5897;42.640;23.310;2023-06-04T07:42:45;94276.38;;;19.41;99.83
11682;BME280;5897;42.640;23.310;2023-06-04T07:45:12;94256.19;;;19.24;99.85
11682;BME280;5897;42.640;23.310;2023-06-04T07:47:41;94283.91;;;19.60;97.62
11682;BME280;5897;42.640;23.310;2023-06-04T07:50:08;94279.28;;;19.66;98.17
11682;BME280;5897;42.640;23.310;2023-06-04T07:52:35;94281.06;;;19.69;97.88
11682;BME280;5897;42.640;23.310;2023-06-04T07:55:02;94290.59;;;19.74;97.90
11682;BME280;5897;42.640;23.310;2023-06-04T07:57:30;94282.38;;;19.74;98.76
11682;BME280;5897;42.640;23.310;2023-06-04T07:59:57;94290.81;;;19.70;99.36
11682;BME280;5897;42.640;23.310;2023-06-04T08:02:24;94288.88;;;19.91;99.26
11682;BME280;5897;42.640;23.310;2023-06-04T08:04:52;94292.00;;;19.84;99.35
11682;BME280;5897;42.640;23.310;2023-06-04T08:07:19;94291.03;;;19.87;97.73
11682;BME280;5897;42.640;23.310;2023-06-04T08:09:46;94294.22;;;20.14;96.71
11682;BME280;5897;42.640;23.310;2023-06-04T08:12:13;94287.69;;;20.32;93.25
11682;BME280;5897;42.640;23.310;2023-06-04T08:14:41;94292.38;;;20.46;92.10
11682;BME280;5897;42.640;23.310;2023-06-04T08:17:08;94291.41;;;20.49;91.71
11682;BME280;5897;42.640;23.310;2023-06-04T08:19:35;94291.84;;;20.62;90.33
11682;BME280;5897;42.640;23.310;2023-06-04T08:22:03;94287.97;;;20.74;88.85
11682;BME280;5897;42.640;23.310;2023-06-04T08:24:31;94292.63;;;20.88;89.03
11682;BME280;5897;42.640;23.310;2023-06-04T08:26:58;94294.47;;;20.96;87.63
11682;BME280;5897;42.640;23.310;2023-06-04T08:29:25;94298.94;;;20.94;86.86
11682;BME280;5897;42.640;23.310;2023-06-04T08:31:52;94278.75;;;20.77;87.28
11682;BME280;5897;42.640;23.310;2023-06-04T08:34:18;94289.75;;;20.97;87.19
11682;BME280;5897;42.640;23.310;2023-06-04T08:36:45;94294.69;;;20.93;87.31
11682;BME280;5897;42.640;23.310;2023-06-04T08:39:14;94304.78;;;21.01;85.33
11682;BME280;5897;42.640;23.310;2023-06-04T08:41:43;94297.69;;;21.15;82.86
11682;BME280;5897;42.640;23.310;2023-06-04T08:44:10;94300.16;;;21.13;82.71
11682;BME280;5897;42.640;23.310;2023-06-04T08:46:38;94311.16;;;21.13;81.53
11682;BME280;5897;42.640;23.310;2023-06-04T08:49:07;94311.56;;;20.86;82.50
11682;BME280;5897;42.640;23.310;2023-06-04T08:51:36;94303.44;;;20.71;83.33
11682;BME280;5897;42.640;23.310;2023-06-04T08:54:04;94316.94;;;20.75;83.20
11682;BME280;5897;42.640;23.310;2023-06-04T08:56:34;94322.13;;;20.73;84.48
11682;BME280;5897;42.640;23.310;2023-06-04T08:59:03;94319.16;;;20.91;81.43
11682;BME280;5897;42.640;23.310;2023-06-04T09:01:31;94316.94;;;20.95;80.43
11682;BME280;5897;42.640;23.310;2023-06-04T09:04:00;94325.38;;;20.91;83.72
11682;BME280;5897;42.640;23.310;2023-06-04T09:06:28;94319.63;;;20.89;83.06
11682;BME280;5897;42.640;23.310;2023-06-04T09:08:56;94324.69;;;20.56;83.57
11682;BME280;5897;42.640;23.310;2023-06-04T09:11:26;94322.03;;;20.62;83.39
11682;BME280;5897;42.640;23.310;2023-06-04T09:13:58;94329.44;;;20.96;81.44
11682;BME280;5897;42.640;23.310;2023-06-04T09:16:26;94330.53;;;21.04;79.99
11682;BME280;5897;42.640;23.310;2023-06-04T09:18:53;94328.13;;;21.11;78.98
11682;BME280;5897;42.640;23.310;2023-06-04T09:21:20;94335.03;;;21.07;78.89
11682;BME280;5897;42.640;23.310;2023-06-04T09:23:47;94337.09;;;21.12;79.44
11682;BME280;5897;42.640;23.310;2023-06-04T09:26:14;94334.53;;;21.03;80.47
11682;BME280;5897;42.640;23.310;2023-06-04T09:28:41;94315.16;;;20.92;79.23
11682;BME280;5897;42.640;23.310;2023-06-04T09:31:12;94328.97;;;21.23;79.94
11682;BME280;5897;42.640;23.310;2023-06-04T09:33:44;94327.53;;;21.02;81.12
11682;BME280;5897;42.640;23.310;2023-06-04T09:36:11;94331.13;;;21.13;80.40
11682;BME280;5897;42.640;23.310;2023-06-04T09:38:38;94331.19;;;21.19;79.34
11682;BME280;5897;42.640;23.310;2023-06-04T09:41:11;94324.25;;;21.23;78.61
11682;BME280;5897;42.640;23.310;2023-06-04T09:43:38;94336.47;;;21.22;79.44
11682;BME280;5897;42.640;23.310;2023-06-04T09:46:11;94314.09;;;21.35;78.29
11682;BME280;5897;42.640;23.310;2023-06-04T09:48:39;94322.44;;;21.71;78.72
11682;BME280;5897;42.640;23.310;2023-06-04T09:51:07;94320.09;;;21.90;77.02
11682;BME280;5897;42.640;23.310;2023-06-04T09:53:34;94335.75;;;22.15;74.51
11682;BME280;5897;42.640;23.310;2023-06-04T09:56:02;94333.75;;;22.10;75.84
11682;BME280;5897;42.640;23.310;2023-06-04T09:58:30;94328.41;;;22.37;75.82
11682;BME280;5897;42.640;23.310;2023-06-04T10:00:58;94323.13;;;22.34;74.61
11682;BME280;5897;42.640;23.310;2023-06-04T10:03:30;94306.63;;;22.34;75.46
11682;BME280;5897;42.640;23.310;2023-06-04T10:06:00;94328.06;;;22.61;74.61
11682;BME280;5897;42.640;23.310;2023-06-04T10:08:30;94323.59;;;22.69;73.24
11682;BME280;5897;42.640;23.310;2023-06-04T10:10:58;94325.84;;;22.28;74.90
11682;BME280;5897;42.640;23.310;2023-06-04T10:13:27;94329.13;;;22.32;73.41
11682;BME280;5897;42.640;23.310;2023-06-04T10:15:57;94316.22;;;22.44;71.92
11682;BME280;5897;42.640;23.310;2023-06-04T10:18:28;94321.75;;;22.13;73.32
11682;BME280;5897;42.640;23.310;2023-06-04T10:20:55;94315.69;;;22.03;75.12
11682;BME280;5897;42.640;23.310;2023-06-04T10:23:23;94317.09;;;22.30;73.26
11682;BME280;5897;42.640;23.310;2023-06-04T10:25:51;94315.06;;;22.25;72.80
11682;BME280;5897;42.640;23.310;2023-06-04T10:28:19;94322.91;;;22.37;72.92
11682;BME280;5897;42.640;23.310;2023-06-04T10:30:46;94325.41;;;22.35;72.49
11682;BME280;5897;42.640;23.310;2023-06-04T10:33:16;94320.63;;;22.30;70.42
11682;BME280;5897;42.640;23.310;2023-06-04T10:35:44;94316.81;;;22.22;70.24
11682;BME280;5897;42.640;23.310;2023-06-04T10:38:13;94323.13;;;22.34;71.52
11682;BME280;5897;42.640;23.310;2023-06-04T10:40:42;94319.84;;;22.24;71.79
11682;BME280;5897;42.640;23.310;2023-06-04T10:43:10;94324.97;;;22.06;73.26
11682;BME280;5897;42.640;23.310;2023-06-04T10:45:37;94322.38;;;21.97;73.50
11682;BME280;5897;42.640;23.310;2023-06-04T10:48:05;94328.13;;;21.93;72.84
11682;BME280;5897;42.640;23.310;2023-06-04T10:50:33;94320.81;;;21.85;74.95
11682;BME280;5897;42.640;23.310;2023-06-04T10:53:01;94325.88;;;21.66;74.29
11682;BME280;5897;42.640;23.310;2023-06-04T10:55:30;94314.75;;;21.50;75.18
11682;BME280;5897;42.640;23.310;2023-06-04T10:57:58;94314.78;;;21.55;75.03
11682;BME280;5897;42.640;23.310;2023-06-04T11:00:35;94305.66;;;21.13;77.02
11682;BME280;5897;42.640;23.310;2023-06-04T11:03:01;94325.69;;;21.19;76.55
11682;BME280;5897;42.640;23.310;2023-06-04T11:05:35;94318.38;;;21.36;75.88
11682;BME280;5897;42.640;23.310;2023-06-04T11:08:04;94313.72;;;21.47;75.28
11682;BME280;5897;42.640;23.310;2023-06-04T11:10:32;94313.13;;;21.38;76.82
11682;BME280;5897;42.640;23.310;2023-06-04T11:13:00;94312.94;;;21.47;77.69
11682;BME280;5897;42.640;23.310;2023-06-04T11:15:37;94313.50;;;21.51;76.52
11682;BME280;5897;42.640;23.310;2023-06-04T11:18:04;94318.13;;;21.65;76.67
11682;BME280;5897;42.640;23.310;2023-06-04T11:20:31;94318.41;;;21.41;78.08
11682;BME280;5897;42.640;23.310;2023-06-04T11:23:00;94313.50;;;21.51;76.97
11682;BME280;5897;42.640;23.310;2023-06-04T11:25:30;94311.22;;;21.49;77.56
11682;BME280;5897;42.640;23.310;2023-06-04T11:27:58;94310.13;;;21.67;77.24
11682;BME280;5897;42.640;23.310;2023-06-04T11:30:27;94314.88;;;21.66;78.66
11682;BME280;5897;42.640;23.310;2023-06-04T11:33:01;94313.38;;;21.65;78.80
11682;BME280;5897;42.640;23.310;2023-06-04T11:35:28;94308.28;;;21.53;78.94
11682;BME280;5897;42.640;23.310;2023-06-04T11:37:55;94312.03;;;21.55;77.43
11682;BME280;5897;42.640;23.310;2023-06-04T11:40:23;94316.09;;;21.60;76.59
11682;BME280;5897;42.640;23.310;2023-06-04T11:42:53;94323.09;;;21.61;75.75
11682;BME280;5897;42.640;23.310;2023-06-04T11:45:21;94318.03;;;21.54;75.33
11682;BME280;5897;42.640;23.310;2023-06-04T11:47:49;94325.47;;;21.48;75.20
11682;BME280;5897;42.640;23.310;2023-06-04T11:50:16;94321.75;;;21.51;75.15
11682;BME280;5897;42.640;23.310;2023-06-04T11:52:43;94319.59;;;21.35;75.74
11682;BME280;5897;42.640;23.310;2023-06-04T11:55:11;94318.53;;;21.27;78.80
11682;BME280;5897;42.640;23.310;2023-06-04T11:57:39;94316.44;;;21.16;82.17
11682;BME280;5897;42.640;23.310;2023-06-04T12:00:08;94314.75;;;20.99;85.50
11682;BME280;5897;42.640;23.310;2023-06-04T12:02:36;94314.31;;;21.06;83.49
11682;BME280;5897;42.640;23.310;2023-06-04T12:05:13;94319.53;;;21.04;82.35
11682;BME280;5897;42.640;23.310;2023-06-04T12:07:40;94319.00;;;21.00;83.43
11682;BME280;5897;42.640;23.310;2023-06-04T12:10:07;94325.16;;;20.95;84.51
11682;BME280;5897;42.640;23.310;2023-06-04T12:12:37;94325.38;;;20.91;86.77
11682;BME280;5897;42.640;23.310;2023-06-04T12:15:04;94311.03;;;20.82;89.90
11682;BME280;5897;42.640;23.310;2023-06-04T12:17:34;94329.56;;;20.87;91.11
11682;BME280;5897;42.640;23.310;2023-06-04T12:20:01;94333.56;;;20.86;87.55
11682;BME280;5897;42.640;23.310;2023-06-04T12:22:30;94328.31;;;20.88;88.18
11682;BME280;5897;42.640;23.310;2023-06-04T12:24:57;94325.19;;;20.75;90.36
11682;BME280;5897;42.640;23.310;2023-06-04T12:27:28;94327.25;;;20.80;88.21
11682;BME280;5897;42.640;23.310;2023-06-04T12:29:56;94330.25;;;20.82;83.75
11682;BME280;5897;42.640;23.310;2023-06-04T12:32:23;94329.69;;;20.78;84.68
11682;BME280;5897;42.640;23.310;2023-06-04T12:34:51;94328.75;;;20.81;84.20
11682;BME280;5897;42.640;23.310;2023-06-04T12:37:18;94330.25;;;20.82;84.07
11682;BME280;5897;42.640;23.310;2023-06-04T12:39:45;94329.22;;;20.79;83.80
11682;BME280;5897;42.640;23.310;2023-06-04T12:42:12;94327.25;;;20.80;82.97
11682;BME280;5897;42.640;23.310;2023-06-04T12:44:39;94325.66;;;20.73;83.48
11682;BME280;5897;42.640;23.310;2023-06-04T12:47:07;94331.78;;;20.63;86.47
11682;BME280;5897;42.640;23.310;2023-06-04T12:49:34;94326.94;;;20.38;88.38
11682;BME280;5897;42.640;23.310;2023-06-04T12:52:02;94315.66;;;20.16;94.76
11682;BME280;5897;42.640;23.310;2023-06-04T12:54:29;94315.81;;;19.92;98.81
11682;BME280;5897;42.640;23.310;2023-06-04T12:56:56;94327.75;;;19.75;100.00
11682;BME280;5897;42.640;23.310;2023-06-04T12:59:24;94331.53;;;19.63;100.00